sensor_id;sensor_type;location;lat;lon;timestamp;pressure;altitude;pressure_sealevel;temperature;humidity
12775;BME280;6451;42.630;23.382;2023-09-19T00:00:17;94759.66;;;16.04;100.00
12775;BME280;6451;42.630;23.382;2023-09-19T00:02:46;94790.88;;;16.30;100.00
12775;BME280;6451;42.630;23.382;2023-09-19T00:05:18;94792.34;;;16.24;100.00
12775;BME280;6451;42.630;23.382;2023-09-19T00:07:49;94777.00;;;16.16;100.00
12775;BME280;6451;42.630;23.382;2023-09-19T00:10:17;94795.47;;;16.22;100.00
12775;BME280;6451;42.630;23.382;2023-09-19T00:12:45;94791.09;;;16.18;100.00
12775;BME280;6451;42.630;23.382;2023-09-19T00:15:13;94795.75;;;16.13;100.00
12775;BME280;6451;42.630;23.382;2023-09-19T00:17:45;94779.97;;;16.03;100.00
12775;BME280;6451;42.630;23.382;2023-09-19T00:20:13;94789.38;;;16.06;100.00
12775;BME280;6451;42.630;23.382;2023-09-19T00:22:43;94786.16;;;16.00;100.00
12775;BME280;6451;42.630;23.382;2023-09-19T00:25:10;94757.75;;;15.82;100.00
12775;BME280;6451;42.630;23.382;2023-09-19T00:27:38;94779.22;;;16.06;100.00
12775;BME280;6451;42.630;23.382;2023-09-19T00:30:08;94780.16;;;15.91;100.00
12775;BME280;6451;42.630;23.382;2023-09-19T00:32:41;94778.19;;;15.88;100.00
12775;BME280;6451;42.630;23.382;2023-09-19T00:35:08;94758.13;;;15.80;100.00
12775;BME280;6451;42.630;23.382;2023-09-19T00:37:37;94763.66;;;15.84;100.00
12775;BME280;6451;42.630;23.382;2023-09-19T00:40:06;94780.91;;;15.88;100.00
12775;BME280;6451;42.630;23.382;2023-09-19T00:42:38;94751.66;;;15.66;100.00
12775;BME280;6451;42.630;23.382;2023-09-19T00:45:07;94768.97;;;15.73;100.00
12775;BME280;6451;42.630;23.382;2023-09-19T00:47:35;94763.44;;;15.70;100.00
12775;BME280;6451;42.630;23.382;2023-09-19T00:50:05;94751.13;;;15.56;100.00
12775;BME280;6451;42.630;23.382;2023-09-19T00:52:34;94760.81;;;15.54;100.00
12775;BME280;6451;42.630;23.382;2023-09-19T00:55:02;94728.25;;;15.45;100.00
12775;BME280;6451;42.630;23.382;2023-09-19T00:57:30;94734.41;;;15.39;100.00
12775;BME280;6451;42.630;23.382;2023-09-19T01:00:00;94743.50;;;15.46;100.00
12775;BME280;6451;42.630;23.382;2023-09-19T01:02:31;94772.94;;;15.53;100.00
12775;BME280;6451;42.630;23.382;2023-09-19T01:04:58;94763.41;;;15.43;100.00
12775;BME280;6451;42.630;23.382;2023-09-19T01:07:28;94764.78;;;15.56;100.00
12775;BME280;6451;42.630;23.382;2023-09-19T01:09:56;94736.59;;;15.29;100.00
12775;BME280;6451;42.630;23.382;2023-09-19T01:12:34;94729.56;;;15.28;100.00
12775;BME280;6451;42.630;23.382;2023-09-19T01:15:11;94752.22;;;15.29;100.00
12775;BME280;6451;42.630;23.382;2023-09-19T01:17:45;94759.69;;;15.32;100.00
12775;BME280;6451;42.630;23.382;2023-09-19T01:20:33;94765.09;;;15.28;100.00
12775;BME280;6451;42.630;23.382;2023-09-19T01:23:11;94719.03;;;15.04;100.00
12775;BME280;6451;42.630;23.382;2023-09-19T01:26:07;94729.69;;;15.13;100.00
12775;BME280;6451;42.630;23.382;2023-09-19T01:29:00;94752.22;;;15.29;100.00
12775;BME280;6451;42.630;23.382;2023-09-19T01:31:34;94703.88;;;14.87;100.00
12775;BME280;6451;42.630;23.382;2023-09-19T01:34:05;94764.63;;;15.23;100.00
12775;BME280;6451;42.630;23.382;2023-09-19T01:36:35;94756.00;;;15.21;100.00
12775;BME280;6451;42.630;23.382;2023-09-19T01:39:04;94768.16;;;15.23;100.00
12775;BME280;6451;42.630;23.382;2023-09-19T01:41:54;94756.00;;;15.21;100.00
12775;BME280;6451;42.630;23.382;2023-09-19T01:44:31;94750.53;;;15.21;100.00
12775;BME280;6451;42.630;23.382;2023-09-19T01:47:11;94701.47;;;14.82;100.00
12775;BME280;6451;42.630;23.382;2023-09-19T01:49:48;94729.94;;;15.04;100.00
12775;BME280;6451;42.630;23.382;2023-09-19T01:52:19;94750.53;;;15.21;100.00
12775;BME280;6451;42.630;23.382;2023-09-19T01:54:50;94733.03;;;15.02;100.00
12775;BME280;6451;42.630;23.382;2023-09-19T01:57:25;94751.56;;;15.13;100.00
12775;BME280;6451;42.630;23.382;2023-09-19T02:00:03;94715.31;;;14.93;100.00
12775;BME280;6451;42.630;23.382;2023-09-19T02:02:34;94759.22;;;15.04;100.00
12775;BME280;6451;42.630;23.382;2023-09-19T02:05:03;94762.00;;;15.07;100.00
12775;BME280;6451;42.630;23.382;2023-09-19T02:07:31;94761.16;;;15.03;100.00
12775;BME280;6451;42.630;23.382;2023-09-19T02:09:58;94758.06;;;15.05;100.00
12775;BME280;6451;42.630;23.382;2023-09-19T02:12:25;94752.16;;;15.02;100.00
12775;BME280;6451;42.630;23.382;2023-09-19T02:14:52;94772.00;;;15.19;100.00
12775;BME280;6451;42.630;23.382;2023-09-19T02:17:20;94764.44;;;15.35;100.00
12775;BME280;6451;42.630;23.382;2023-09-19T02:19:50;94766.63;;;15.49;100.00
12775;BME280;6451;42.630;23.382;2023-09-19T02:22:17;94767.41;;;15.49;100.00
12775;BME280;6451;42.630;23.382;2023-09-19T02:24:44;94762.34;;;15.51;100.00
12775;BME280;6451;42.630;23.382;2023-09-19T02:27:13;94703.09;;;15.10;100.00
12775;BME280;6451;42.630;23.382;2023-09-19T02:29:41;94756.94;;;15.32;100.00
12775;BME280;6451;42.630;23.382;2023-09-19T02:32:08;94764.13;;;15.40;100.00
12775;BME280;6451;42.630;23.382;2023-09-19T02:34:36;94745.31;;;15.12;100.00
12775;BME280;6451;42.630;23.382;2023-09-19T02:37:07;94750.53;;;15.21;100.00
12775;BME280;6451;42.630;23.382;2023-09-19T02:39:34;94748.16;;;15.19;100.00
12775;BME280;6451;42.630;23.382;2023-09-19T02:42:04;94736.88;;;15.21;100.00
12775;BME280;6451;42.630;23.382;2023-09-19T02:44:31;94745.00;;;15.17;100.00
12775;BME280;6451;42.630;23.382;2023-09-19T02:46:58;94741.19;;;15.22;100.00
12775;BME280;6451;42.630;23.382;2023-09-19T02:49:25;94731.81;;;15.23;100.00
12775;BME280;6451;42.630;23.382;2023-09-19T02:51:52;94690.03;;;14.77;100.00
12775;BME280;6451;42.630;23.382;2023-09-19T02:54:21;94706.56;;;14.84;100.00
12775;BME280;6451;42.630;23.382;2023-09-19T02:56:49;94712.50;;;14.66;100.00
12775;BME280;6451;42.630;23.382;2023-09-19T02:59:17;94728.78;;;14.82;100.00
12775;BME280;6451;42.630;23.382;2023-09-19T03:01:45;94724.91;;;14.83;100.00
12775;BME280;6451;42.630;23.382;2023-09-19T03:04:13;94705.81;;;14.64;100.00
12775;BME280;6451;42.630;23.382;2023-09-19T03:06:45;94700.44;;;14.48;100.00
12775;BME280;6451;42.630;23.382;2023-09-19T03:09:12;94656.09;;;14.12;100.00
12775;BME280;6451;42.630;23.382;2023-09-19T03:11:42;94704.69;;;14.45;100.00
12775;BME280;6451;42.630;23.382;2023-09-19T03:14:12;94710.16;;;14.45;100.00
12775;BME280;6451;42.630;23.382;2023-09-19T03:16:40;94715.47;;;14.38;100.00
12775;BME280;6451;42.630;23.382;2023-09-19T03:19:08;94696.28;;;14.35;100.00
12775;BME280;6451;42.630;23.382;2023-09-19T03:21:36;94661.78;;;14.04;100.00
12775;BME280;6451;42.630;23.382;2023-09-19T03:24:04;94685.75;;;14.14;100.00
12775;BME280;6451;42.630;23.382;2023-09-19T03:26:32;94708.94;;;14.24;100.00
12775;BME280;6451;42.630;23.382;2023-09-19T03:29:03;94696.56;;;14.10;100.00
12775;BME280;6451;42.630;23.382;2023-09-19T03:31:33;94711.09;;;14.14;100.00
12775;BME280;6451;42.630;23.382;2023-09-19T03:34:03;94713.09;;;14.17;100.00
12775;BME280;6451;42.630;23.382;2023-09-19T03:36:30;94714.38;;;14.24;100.00
12775;BME280;6451;42.630;23.382;2023-09-19T03:39:01;94712.06;;;14.26;100.00
12775;BME280;6451;42.630;23.382;2023-09-19T03:41:30;94717.44;;;14.41;100.00
12775;BME280;6451;42.630;23.382;2023-09-19T03:43:59;94716.31;;;14.42;100.00
12775;BME280;6451;42.630;23.382;2023-09-19T03:46:28;94719.13;;;14.46;100.00
12775;BME280;6451;42.630;23.382;2023-09-19T03:48:55;94677.63;;;14.17;100.00
12775;BME280;6451;42.630;23.382;2023-09-19T03:51:22;94721.19;;;14.33;100.00
12775;BME280;6451;42.630;23.382;2023-09-19T03:53:49;94690.13;;;13.99;100.00
12775;BME280;6451;42.630;23.382;2023-09-19T03:56:17;94713.59;;;14.23;100.00
12775;BME280;6451;42.630;23.382;2023-09-19T03:58:44;94726.31;;;14.35;100.00
12775;BME280;6451;42.630;23.382;2023-09-19T04:01:12;94714.69;;;14.18;100.00
12775;BME280;6451;42.630;23.382;2023-09-19T04:03:39;94730.91;;;14.31;100.00
12775;BME280;6451;42.630;23.382;2023-09-19T04:06:12;94735.63;;;14.50;100.00
12775;BME280;6451;42.630;23.382;2023-09-19T04:08:39;94726.69;;;14.53;100.00
12775;BME280;6451;42.630;23.382;2023-09-19T04:11:06;94738.34;;;14.50;100.00
12775;BME280;6451;42.630;23.382;2023-09-19T04:13:33;94745.50;;;14.58;100.00
12775;BME280;6451;42.630;23.382;2023-09-19T04:16:00;94743.72;;;14.65;100.00
12775;BME280;6451;42.630;23.382;2023-09-19T04:18:29;94746.56;;;14.72;100.00
12775;BME280;6451;42.630;23.382;2023-09-19T04:20:58;94738.78;;;14.74;100.00
12775;BME280;6451;42.630;23.382;2023-09-19T04:23:28;94752.78;;;14.92;100.00
12775;BME280;6451;42.630;23.382;2023-09-19T04:26:00;94743.28;;;15.09;100.00
12775;BME280;6451;42.630;23.382;2023-09-19T04:28:29;94732.31;;;15.06;100.00
12775;BME280;6451;42.630;23.382;2023-09-19T04:30:58;94744.94;;;15.14;100.00
12775;BME280;6451;42.630;23.382;2023-09-19T04:33:26;94748.09;;;15.16;100.00
12775;BME280;6451;42.630;23.382;2023-09-19T04:35:54;94751.03;;;15.26;100.00
12775;BME280;6451;42.630;23.382;2023-09-19T04:38:21;94723.91;;;15.18;100.00
12775;BME280;6451;42.630;23.382;2023-09-19T04:40:49;94744.31;;;15.24;100.00
12775;BME280;6451;42.630;23.382;2023-09-19T04:43:16;94734.66;;;15.30;100.00
12775;BME280;6451;42.630;23.382;2023-09-19T04:45:42;94716.06;;;15.39;100.00
12775;BME280;6451;42.630;23.382;2023-09-19T04:48:10;94734.94;;;15.48;100.00
12775;BME280;6451;42.630;23.382;2023-09-19T04:50:38;94737.44;;;15.56;100.00
12775;BME280;6451;42.630;23.382;2023-09-19T04:53:06;94736.69;;;15.60;100.00
12775;BME280;6451;42.630;23.382;2023-09-19T04:55:33;94736.44;;;15.68;100.00
12775;BME280;6451;42.630;23.382;2023-09-19T04:58:00;94743.09;;;15.67;100.00
12775;BME280;6451;42.630;23.382;2023-09-19T05:00:29;94738.97;;;15.80;100.00
12775;BME280;6451;42.630;23.382;2023-09-19T05:02:56;94725.03;;;15.89;100.00
12775;BME280;6451;42.630;23.382;2023-09-19T05:05:23;94722.38;;;15.96;100.00
12775;BME280;6451;42.630;23.382;2023-09-19T05:07:53;94720.06;;;15.72;100.00
12775;BME280;6451;42.630;23.382;2023-09-19T05:10:22;94716.81;;;15.89;100.00
12775;BME280;6451;42.630;23.382;2023-09-19T05:12:53;94717.63;;;15.93;100.00
12775;BME280;6451;42.630;23.382;2023-09-19T05:15:20;94667.69;;;15.70;100.00
12775;BME280;6451;42.630;23.382;2023-09-19T05:17:51;94718.31;;;16.17;100.00
12775;BME280;6451;42.630;23.382;2023-09-19T05:20:21;94715.03;;;16.34;100.00
12775;BME280;6451;42.630;23.382;2023-09-19T05:22:58;94707.56;;;16.64;100.00
12775;BME280;6451;42.630;23.382;2023-09-19T05:25:30;94720.34;;;16.87;100.00
12775;BME280;6451;42.630;23.382;2023-09-19T05:27:58;94720.38;;;16.94;100.00
12775;BME280;6451;42.630;23.382;2023-09-19T05:30:26;94720.50;;;17.05;100.00
12775;BME280;6451;42.630;23.382;2023-09-19T05:32:54;94708.88;;;17.22;100.00
12775;BME280;6451;42.630;23.382;2023-09-19T05:35:22;94704.69;;;17.39;100.00
12775;BME280;6451;42.630;23.382;2023-09-19T05:37:50;94710.69;;;17.51;100.00
12775;BME280;6451;42.630;23.382;2023-09-19T05:40:18;94706.19;;;17.29;100.00
12775;BME280;6451;42.630;23.382;2023-09-19T05:42:47;94715.97;;;17.27;100.00
12775;BME280;6451;42.630;23.382;2023-09-19T05:45:16;94701.22;;;17.42;100.00
12775;BME280;6451;42.630;23.382;2023-09-19T05:47:48;94709.84;;;17.44;100.00
12775;BME280;6451;42.630;23.382;2023-09-19T05:50:16;94711.47;;;17.56;100.00
12775;BME280;6451;42.630;23.382;2023-09-19T05:52:51;94680.94;;;17.61;100.00
12775;BME280;6451;42.630;23.382;2023-09-19T05:55:18;94704.59;;;17.76;100.00
12775;BME280;6451;42.630;23.382;2023-09-19T05:57:54;94707.59;;;17.57;100.00
12775;BME280;6451;42.630;23.382;2023-09-19T06:00:21;94699.03;;;17.69;100.00
12775;BME280;6451;42.630;23.382;2023-09-19T06:02:50;94695.63;;;17.79;100.00
12775;BME280;6451;42.630;23.382;2023-09-19T06:05:18;94676.38;;;17.75;100.00
12775;BME280;6451;42.630;23.382;2023-09-19T06:07:45;94689.28;;;17.71;100.00
12775;BME280;6451;42.630;23.382;2023-09-19T06:10:12;94689.06;;;18.05;100.00
12775;BME280;6451;42.630;23.382;2023-09-19T06:12:40;94698.09;;;18.09;100.00
12775;BME280;6451;42.630;23.382;2023-09-19T06:15:11;94694.09;;;17.92;100.00
12775;BME280;6451;42.630;23.382;2023-09-19T06:17:41;94699.69;;;18.14;100.00
12775;BME280;6451;42.630;23.382;2023-09-19T06:20:08;94695.97;;;17.77;100.00
12775;BME280;6451;42.630;23.382;2023-09-19T06:22:39;94683.50;;;17.87;100.00
12775;BME280;6451;42.630;23.382;2023-09-19T06:25:07;94689.06;;;18.09;100.00
12775;BME280;6451;42.630;23.382;2023-09-19T06:27:37;94696.63;;;18.29;100.00
12775;BME280;6451;42.630;23.382;2023-09-19T06:30:06;94694.78;;;18.58;100.00
12775;BME280;6451;42.630;23.382;2023-09-19T06:32:35;94687.34;;;18.70;100.00
12775;BME280;6451;42.630;23.382;2023-09-19T06:35:02;94690.88;;;18.70;100.00
12775;BME280;6451;42.630;23.382;2023-09-19T06:37:33;94681.78;;;18.48;100.00
12775;BME280;6451;42.630;23.382;2023-09-19T06:40:01;94681.91;;;18.80;100.00
12775;BME280;6451;42.630;23.382;2023-09-19T06:42:28;94687.38;;;18.84;100.00
12775;BME280;6451;42.630;23.382;2023-09-19T06:44:55;94695.94;;;18.61;100.00
12775;BME280;6451;42.630;23.382;2023-09-19T06:47:22;94688.50;;;18.65;100.00
12775;BME280;6451;42.630;23.382;2023-09-19T06:49:52;94697.91;;;18.57;100.00
12775;BME280;6451;42.630;23.382;2023-09-19T06:52:19;94684.94;;;18.57;100.00
12775;BME280;6451;42.630;23.382;2023-09-19T06:54:48;94699.94;;;18.85;100.00
12775;BME280;6451;42.630;23.382;2023-09-19T06:57:18;94693.59;;;18.63;100.00
12775;BME280;6451;42.630;23.382;2023-09-19T06:59:45;94704.66;;;18.81;100.00
12775;BME280;6451;42.630;23.382;2023-09-19T07:02:12;94690.13;;;18.73;100.00
12775;BME280;6451;42.630;23.382;2023-09-19T07:04:39;94705.44;;;18.85;100.00
12775;BME280;6451;42.630;23.382;2023-09-19T07:07:07;94699.56;;;18.79;100.00
12775;BME280;6451;42.630;23.382;2023-09-19T07:09:35;94705.34;;;18.49;100.00
12775;BME280;6451;42.630;23.382;2023-09-19T07:12:03;94689.72;;;18.78;100.00
12775;BME280;6451;42.630;23.382;2023-09-19T07:14:31;94715.31;;;19.04;100.00
12775;BME280;6451;42.630;23.382;2023-09-19T07:16:57;94711.00;;;19.13;100.00
12775;BME280;6451;42.630;23.382;2023-09-19T07:19:25;94715.63;;;18.67;100.00
12775;BME280;6451;42.630;23.382;2023-09-19T07:21:53;94713.72;;;18.99;100.00
12775;BME280;6451;42.630;23.382;2023-09-19T07:24:22;94702.34;;;19.04;100.00
12775;BME280;6451;42.630;23.382;2023-09-19T07:26:50;94703.94;;;19.41;100.00
12775;BME280;6451;42.630;23.382;2023-09-19T07:29:17;94703.94;;;19.30;100.00
12775;BME280;6451;42.630;23.382;2023-09-19T07:31:44;94705.50;;;19.49;100.00
12775;BME280;6451;42.630;23.382;2023-09-19T07:34:12;94707.81;;;20.00;100.00
12775;BME280;6451;42.630;23.382;2023-09-19T07:36:40;94709.38;;;20.05;100.00
12775;BME280;6451;42.630;23.382;2023-09-19T07:39:08;94707.47;;;19.77;100.00
12775;BME280;6451;42.630;23.382;2023-09-19T07:41:36;94718.91;;;19.65;100.00
12775;BME280;6451;42.630;23.382;2023-09-19T07:44:03;94708.69;;;19.65;100.00
12775;BME280;6451;42.630;23.382;2023-09-19T07:46:31;94716.88;;;19.97;100.00
12775;BME280;6451;42.630;23.382;2023-09-19T07:48:58;94689.75;;;19.78;100.00
12775;BME280;6451;42.630;23.382;2023-09-19T07:51:25;94709.34;;;20.16;100.00
12775;BME280;6451;42.630;23.382;2023-09-19T07:53:52;94710.13;;;20.20;100.00
12775;BME280;6451;42.630;23.382;2023-09-19T07:56:20;94709.41;;;20.02;100.00
12775;BME280;6451;42.630;23.382;2023-09-19T07:58:49;94710.16;;;20.13;100.00
12775;BME280;6451;42.630;23.382;2023-09-19T08:01:17;94721.03;;;20.63;100.00
12775;BME280;6451;42.630;23.382;2023-09-19T08:03:44;94725.22;;;20.85;100.00
12775;BME280;6451;42.630;23.382;2023-09-19T08:06:11;94716.28;;;20.60;100.00
12775;BME280;6451;42.630;23.382;2023-09-19T08:08:39;94716.75;;;20.47;100.00
12775;BME280;6451;42.630;23.382;2023-09-19T08:11:07;94723.06;;;20.41;100.00
12775;BME280;6451;42.630;23.382;2023-09-19T08:13:38;94721.78;;;20.67;100.00
12775;BME280;6451;42.630;23.382;2023-09-19T08:16:10;94716.25;;;20.67;100.00
12775;BME280;6451;42.630;23.382;2023-09-19T08:18:38;94707.63;;;20.65;100.00
12775;BME280;6451;42.630;23.382;2023-09-19T08:21:05;94707.31;;;20.48;100.00
12775;BME280;6451;42.630;23.382;2023-09-19T08:23:36;94700.06;;;20.79;100.00
12775;BME280;6451;42.630;23.382;2023-09-19T08:26:04;94695.81;;;20.61;100.00
12775;BME280;6451;42.630;23.382;2023-09-19T08:28:33;94691.19;;;20.33;100.00
12775;BME280;6451;42.630;23.382;2023-09-19T08:31:02;94688.97;;;20.83;100.00
12775;BME280;6451;42.630;23.382;2023-09-19T08:33:33;94682.19;;;21.02;100.00
12775;BME280;6451;42.630;23.382;2023-09-19T08:36:00;94686.38;;;21.21;100.00
12775;BME280;6451;42.630;23.382;2023-09-19T08:38:30;94694.03;;;20.95;100.00
12775;BME280;6451;42.630;23.382;2023-09-19T08:41:00;94693.69;;;21.49;100.00
12775;BME280;6451;42.630;23.382;2023-09-19T08:43:28;94695.00;;;21.75;100.00
12775;BME280;6451;42.630;23.382;2023-09-19T08:46:09;94691.06;;;21.76;100.00
12775;BME280;6451;42.630;23.382;2023-09-19T08:48:39;94698.84;;;21.88;100.00
12775;BME280;6451;42.630;23.382;2023-09-19T08:51:12;94691.53;;;21.67;100.00
12775;BME280;6451;42.630;23.382;2023-09-19T08:53:42;94689.88;;;22.18;100.00
12775;BME280;6451;42.630;23.382;2023-09-19T08:56:17;94682.06;;;22.06;100.00
12775;BME280;6451;42.630;23.382;2023-09-19T08:58:47;94687.81;;;22.26;100.00
12775;BME280;6451;42.630;23.382;2023-09-19T09:01:15;94683.78;;;22.30;100.00
12775;BME280;6451;42.630;23.382;2023-09-19T09:03:49;94687.38;;;22.27;100.00
12775;BME280;6451;42.630;23.382;2023-09-19T09:06:17;94680.25;;;22.30;100.00
12775;BME280;6451;42.630;23.382;2023-09-19T09:08:46;94672.88;;;22.19;100.00
12775;BME280;6451;42.630;23.382;2023-09-19T09:11:13;94664.13;;;22.25;100.00
12775;BME280;6451;42.630;23.382;2023-09-19T09:13:43;94669.44;;;22.05;100.00
12775;BME280;6451;42.630;23.382;2023-09-19T09:16:10;94678.13;;;21.65;100.00
12775;BME280;6451;42.630;23.382;2023-09-19T09:18:38;94674.59;;;22.03;100.00
12775;BME280;6451;42.630;23.382;2023-09-19T09:21:06;94664.03;;;21.94;100.00
12775;BME280;6451;42.630;23.382;2023-09-19T09:23:34;94662.41;;;22.34;100.00
12775;BME280;6451;42.630;23.382;2023-09-19T09:26:01;94652.66;;;22.57;100.00
12775;BME280;6451;42.630;23.382;2023-09-19T09:28:31;94662.06;;;22.63;100.00
12775;BME280;6451;42.630;23.382;2023-09-19T09:31:01;94652.16;;;22.62;100.00
12775;BME280;6451;42.630;23.382;2023-09-19T09:33:34;94651.16;;;22.79;100.00
12775;BME280;6451;42.630;23.382;2023-09-19T09:36:02;94652.22;;;23.16;100.00
12775;BME280;6451;42.630;23.382;2023-09-19T09:38:44;94647.78;;;22.95;100.00
12775;BME280;6451;42.630;23.382;2023-09-19T09:41:12;94647.72;;;22.71;100.00
12775;BME280;6451;42.630;23.382;2023-09-19T09:43:42;94654.91;;;22.65;100.00
12775;BME280;6451;42.630;23.382;2023-09-19T09:46:13;94642.16;;;23.02;100.00
12775;BME280;6451;42.630;23.382;2023-09-19T09:49:01;94644.03;;;22.51;100.00
12775;BME280;6451;42.630;23.382;2023-09-19T09:51:42;94639.53;;;23.18;100.00
12775;BME280;6451;42.630;23.382;2023-09-19T09:54:15;94642.13;;;23.52;100.00
12775;BME280;6451;42.630;23.382;2023-09-19T09:56:56;94633.09;;;23.72;100.00
12775;BME280;6451;42.630;23.382;2023-09-19T09:59:46;94628.09;;;23.40;100.00
12775;BME280;6451;42.630;23.382;2023-09-19T10:02:14;94612.16;;;23.71;100.00
12775;BME280;6451;42.630;23.382;2023-09-19T10:04:46;94622.25;;;23.81;100.00
12775;BME280;6451;42.630;23.382;2023-09-19T10:07:28;94599.66;;;24.02;100.00
12775;BME280;6451;42.630;23.382;2023-09-19T10:10:01;94625.75;;;24.25;100.00
12775;BME280;6451;42.630;23.382;2023-09-19T10:12:43;94627.72;;;23.84;99.29
12775;BME280;6451;42.630;23.382;2023-09-19T10:15:12;94618.34;;;24.18;96.96
12775;BME280;6451;42.630;23.382;2023-09-19T10:17:42;94584.31;;;23.98;99.25
12775;BME280;6451;42.630;23.382;2023-09-19T10:20:15;94617.66;;;23.94;100.00
12775;BME280;6451;42.630;23.382;2023-09-19T10:23:06;94609.19;;;24.01;97.83
12775;BME280;6451;42.630;23.382;2023-09-19T10:25:42;94618.91;;;23.90;99.79
12775;BME280;6451;42.630;23.382;2023-09-19T10:28:13;94619.31;;;23.68;98.89
12775;BME280;6451;42.630;23.382;2023-09-19T10:30:44;94607.97;;;23.82;97.68
12775;BME280;6451;42.630;23.382;2023-09-19T10:33:13;94610.94;;;23.48;100.00
12775;BME280;6451;42.630;23.382;2023-09-19T10:35:43;94602.69;;;23.45;100.00
12775;BME280;6451;42.630;23.382;2023-09-19T10:38:11;94601.28;;;23.80;99.84
12775;BME280;6451;42.630;23.382;2023-09-19T10:40:40;94597.81;;;23.96;100.00
12775;BME280;6451;42.630;23.382;2023-09-19T10:43:15;94600.50;;;23.79;100.00
12775;BME280;6451;42.630;23.382;2023-09-19T10:45:45;94596.16;;;23.98;100.00
12775;BME280;6451;42.630;23.382;2023-09-19T10:48:15;94600.09;;;24.01;100.00
12775;BME280;6451;42.630;23.382;2023-09-19T10:50:46;94607.41;;;23.91;97.64
12775;BME280;6451;42.630;23.382;2023-09-19T10:53:16;94604.78;;;24.24;95.21
12775;BME280;6451;42.630;23.382;2023-09-19T10:55:51;94595.25;;;23.85;98.59
12775;BME280;6451;42.630;23.382;2023-09-19T10:58:29;94593.75;;;24.20;95.86
12775;BME280;6451;42.630;23.382;2023-09-19T11:01:00;94601.25;;;24.59;92.74
12775;BME280;6451;42.630;23.382;2023-09-19T11:03:37;94587.53;;;24.88;90.59
12775;BME280;6451;42.630;23.382;2023-09-19T11:06:11;94588.47;;;24.98;87.36
12775;BME280;6451;42.630;23.382;2023-09-19T11:08:58;94601.25;;;25.44;85.12
12775;BME280;6451;42.630;23.382;2023-09-19T11:11:50;94589.06;;;24.37;94.10
12775;BME280;6451;42.630;23.382;2023-09-19T11:14:43;94592.00;;;24.66;90.61
12775;BME280;6451;42.630;23.382;2023-09-19T11:17:41;94594.78;;;24.66;91.22
12775;BME280;6451;42.630;23.382;2023-09-19T11:20:31;94583.66;;;25.18;86.21
12775;BME280;6451;42.630;23.382;2023-09-19T11:23:23;94581.03;;;25.28;86.08
12775;BME280;6451;42.630;23.382;2023-09-19T11:25:53;94554.19;;;25.37;84.75
12775;BME280;6451;42.630;23.382;2023-09-19T11:28:35;94569.59;;;25.71;81.55
12775;BME280;6451;42.630;23.382;2023-09-19T11:34:43;94563.28;;;25.70;82.81
12775;BME280;6451;42.630;23.382;2023-09-19T11:40:35;94560.38;;;25.29;84.39
12775;BME280;6451;42.630;23.382;2023-09-19T11:43:32;94560.38;;;24.96;87.73
12775;BME280;6451;42.630;23.382;2023-09-19T11:46:09;94536.13;;;24.48;90.70
12775;BME280;6451;42.630;23.382;2023-09-19T11:48:38;94551.19;;;25.32;85.40
12775;BME280;6451;42.630;23.382;2023-09-19T11:51:14;94536.44;;;24.86;87.98
12775;BME280;6451;42.630;23.382;2023-09-19T11:53:45;94537.50;;;25.08;89.23
12775;BME280;6451;42.630;23.382;2023-09-19T11:56:15;94516.78;;;25.42;85.57
12775;BME280;6451;42.630;23.382;2023-09-19T11:58:44;94523.06;;;25.75;82.38
12775;BME280;6451;42.630;23.382;2023-09-19T12:01:19;94523.88;;;25.88;81.15
12775;BME280;6451;42.630;23.382;2023-09-19T12:03:53;94528.72;;;24.93;87.09
12775;BME280;6451;42.630;23.382;2023-09-19T12:06:20;94529.00;;;25.15;85.14
12775;BME280;6451;42.630;23.382;2023-09-19T12:08:47;94522.28;;;25.29;86.00
12775;BME280;6451;42.630;23.382;2023-09-19T12:11:16;94526.00;;;25.22;85.33
12775;BME280;6451;42.630;23.382;2023-09-19T12:13:47;94530.09;;;25.02;87.01
12775;BME280;6451;42.630;23.382;2023-09-19T12:16:15;94520.22;;;25.17;85.10
12775;BME280;6451;42.630;23.382;2023-09-19T12:18:44;94497.16;;;25.04;86.24
12775;BME280;6451;42.630;23.382;2023-09-19T12:21:28;94499.41;;;25.09;85.78
12775;BME280;6451;42.630;23.382;2023-09-19T12:23:59;94506.91;;;24.92;90.65
12775;BME280;6451;42.630;23.382;2023-09-19T12:26:27;94512.91;;;24.58;95.48
12775;BME280;6451;42.630;23.382;2023-09-19T12:28:56;94503.03;;;24.57;93.45
12775;BME280;6451;42.630;23.382;2023-09-19T12:31:24;94499.63;;;24.49;94.50
12775;BME280;6451;42.630;23.382;2023-09-19T12:33:56;94495.56;;;24.54;92.66
12775;BME280;6451;42.630;23.382;2023-09-19T12:36:25;94490.03;;;24.54;91.92
12775;BME280;6451;42.630;23.382;2023-09-19T12:38:55;94490.06;;;24.34;92.58
12775;BME280;6451;42.630;23.382;2023-09-19T12:41:25;94474.50;;;24.56;92.36
12775;BME280;6451;42.630;23.382;2023-09-19T12:43:52;94484.47;;;24.70;91.72
12775;BME280;6451;42.630;23.382;2023-09-19T12:46:22;94471.28;;;24.42;95.88
12775;BME280;6451;42.630;23.382;2023-09-19T12:49:15;94483.50;;;24.60;95.27
12775;BME280;6451;42.630;23.382;2023-09-19T12:51:43;94478.66;;;24.64;94.17
12775;BME280;6451;42.630;23.382;2023-09-19T12:54:10;94480.56;;;24.51;92.84
12775;BME280;6451;42.630;23.382;2023-09-19T12:56:41;94464.44;;;24.62;92.70
12775;BME280;6451;42.630;23.382;2023-09-19T12:59:11;94476.59;;;24.85;92.02
12775;BME280;6451;42.630;23.382;2023-09-19T13:01:41;94476.06;;;24.57;94.90
12775;BME280;6451;42.630;23.382;2023-09-19T13:04:13;94470.22;;;24.68;95.05
12775;BME280;6451;42.630;23.382;2023-09-19T13:06:40;94447.53;;;24.40;93.63
12775;BME280;6451;42.630;23.382;2023-09-19T13:09:09;94471.09;;;24.81;92.24
12775;BME280;6451;42.630;23.382;2023-09-19T13:11:37;94466.25;;;24.85;90.83
12775;BME280;6451;42.630;23.382;2023-09-19T13:14:20;94466.94;;;24.89;91.83
12775;BME280;6451;42.630;23.382;2023-09-19T13:17:00;94468.44;;;24.61;93.54